Pineville, Minnesota
Current Conditions -  °F | °C
As of 9:51 AM on Friday 19 Dec 2014 (Local Time) from KEVM Reporting Station
Overcast Overcast  
Wind Chill: 14°   Ceiling: 700
Heat Index: 21°   Visibility: 10mi
Dew Point: 19°   Wind: 6mph
Humidity: 93%   Direction: 160°SSE
Pressure: 30.22"   Gusts: NA
Location:  47.4622°N, 92.1946°W
Report Text: KEVM 191551Z AUTO 16005KT 10SM OVC007 M06/M07 A3022 RMK AO2
Loading
Personal Weather Stations






























Interactive Weather Map New forecast layout! Learn more

10-Day Weather Forecast

Advertisements
Track Severe Weather on mobile